createdAt,value
2023-03-23T00:01:45.678Z,99440
2023-03-23T00:07:40.081Z,99445
2023-03-23T00:13:37.939Z,99427
2023-03-23T00:19:40.766Z,99437
2023-03-23T00:25:31.889Z,99431
2023-03-23T00:31:24.092Z,99437
2023-03-23T00:37:16.842Z,99425
2023-03-23T00:43:09.857Z,99418
2023-03-23T00:49:02.948Z,99420
2023-03-23T00:54:55.068Z,99422
2023-03-23T01:00:45.867Z,99409
2023-03-23T01:06:38.736Z,99413
2023-03-23T01:12:31.279Z,99397
2023-03-23T01:18:38.122Z,99390
2023-03-23T01:24:29.596Z,99387
2023-03-23T01:30:21.348Z,99381
2023-03-23T01:36:12.660Z,99363
2023-03-23T01:42:04.408Z,99354
2023-03-23T01:47:57.884Z,99352
2023-03-23T01:53:50.196Z,99364
2023-03-23T01:59:45.185Z,99374
2023-03-23T02:05:37.454Z,99387
2023-03-23T02:11:30.179Z,99397
2023-03-23T02:17:21.731Z,99398
2023-03-23T02:23:14.753Z,99390
2023-03-23T02:29:07.007Z,99393
2023-03-23T02:34:59.584Z,99373
2023-03-23T02:40:52.198Z,99362
2023-03-23T02:46:45.243Z,99376
2023-03-23T02:52:38.036Z,99371
2023-03-23T02:58:33.390Z,99343
2023-03-23T03:04:26.897Z,99348
2023-03-23T03:10:21.407Z,99357
2023-03-23T03:16:14.261Z,99346
2023-03-23T03:22:07.205Z,99327
2023-03-23T03:27:59.979Z,99337
2023-03-23T03:33:55.093Z,99312
2023-03-23T03:39:49.337Z,99306
2023-03-23T03:45:43.909Z,99291
2023-03-23T03:51:36.802Z,99343
2023-03-23T03:57:31.115Z,99375
2023-03-23T04:03:24.142Z,99370
2023-03-23T04:09:16.914Z,99375
2023-03-23T04:15:10.935Z,99340
2023-03-23T04:21:10.354Z,99343
2023-03-23T04:27:07.009Z,99342
2023-03-23T04:32:58.610Z,99352
2023-03-23T04:38:51.044Z,99376
2023-03-23T04:44:43.633Z,99367
2023-03-23T04:50:35.730Z,99370
2023-03-23T04:56:26.232Z,99367
2023-03-23T05:02:20.817Z,99371
2023-03-23T05:08:20.358Z,99364
2023-03-23T05:14:12.733Z,99369
2023-03-23T05:20:05.194Z,99362
2023-03-23T05:25:57.607Z,99354
2023-03-23T05:31:50.169Z,99335
2023-03-23T05:37:42.153Z,99344
2023-03-23T05:43:34.548Z,99362
2023-03-23T05:49:26.933Z,99379
2023-03-23T05:55:20.775Z,99384
2023-03-23T06:01:19.534Z,99379
2023-03-23T06:07:10.951Z,99385
2023-03-23T06:13:04.023Z,99382
2023-03-23T06:18:56.159Z,99383
2023-03-23T06:31:08.608Z,99380
2023-03-23T07:43:30.262Z,99446
2023-03-23T07:49:27.836Z,99447
2023-03-23T07:55:49.790Z,99438
2023-03-23T08:02:10.047Z,99436
2023-03-23T08:08:17.313Z,99439
2023-03-23T08:14:09.078Z,99449
2023-03-23T08:20:05.241Z,99440
2023-03-23T08:25:58.580Z,99447
2023-03-23T08:31:54.343Z,99438
2023-03-23T08:37:49.350Z,99447
2023-03-23T08:43:41.665Z,99457
2023-03-23T08:49:37.401Z,99457
2023-03-23T08:55:46.572Z,99457
2023-03-23T09:01:53.925Z,99453
2023-03-23T09:08:05.087Z,99463
2023-03-23T09:14:30.854Z,99472
2023-03-23T09:20:29.915Z,99469
2023-03-23T09:26:22.903Z,99472
2023-03-23T09:32:34.496Z,99487
2023-03-23T09:38:47.915Z,99482
2023-03-23T09:45:10.523Z,99486
2023-03-23T09:51:20.732Z,99481
2023-03-23T10:16:37.508Z,99492
2023-03-23T10:23:04.971Z,99490
2023-03-23T10:29:10.481Z,99500
2023-03-23T10:35:42.832Z,99510
2023-03-23T10:48:08.134Z,99504
2023-03-23T10:54:15.333Z,99516
2023-03-23T11:00:24.559Z,99511
2023-03-23T11:06:25.470Z,99525
2023-03-23T11:12:32.953Z,99512
2023-03-23T11:18:24.386Z,99511
2023-03-23T11:24:17.085Z,99505
2023-03-23T11:30:16.400Z,99499
2023-03-23T11:36:10.201Z,99507
2023-03-23T11:42:13.170Z,99503
2023-03-23T11:48:04.028Z,99496
2023-03-23T11:53:56.684Z,99481
2023-03-23T11:59:50.728Z,99484
2023-03-23T12:05:43.125Z,99497
2023-03-23T12:11:35.821Z,99502
2023-03-23T12:17:27.532Z,99486
2023-03-23T12:23:19.671Z,99500
2023-03-23T12:29:13.572Z,99496
2023-03-23T12:35:06.136Z,99501
2023-03-23T12:41:00.195Z,99503
2023-03-23T12:46:54.229Z,99494
2023-03-23T12:52:46.642Z,99494
2023-03-23T12:58:38.388Z,99485
2023-03-23T13:04:38.051Z,99490
2023-03-23T13:10:29.512Z,99493
2023-03-23T13:16:21.946Z,99504
2023-03-23T13:22:12.537Z,99513
2023-03-23T13:28:03.974Z,99505
2023-03-23T13:33:57.366Z,99495
2023-03-23T13:39:48.617Z,99478
2023-03-23T13:45:40.202Z,99484
2023-03-23T13:51:34.463Z,99503
2023-03-23T13:57:27.296Z,99478
2023-03-23T14:03:21.571Z,99475
2023-03-23T14:09:15.121Z,99476
2023-03-23T14:15:11.026Z,99474
2023-03-23T14:21:04.895Z,99480
2023-03-23T14:27:04.707Z,99470
2023-03-23T14:32:56.414Z,99464
2023-03-23T14:38:49.653Z,99473
2023-03-23T14:44:45.067Z,99467
2023-03-23T14:50:36.423Z,99466
2023-03-23T14:56:30.239Z,99468
2023-03-23T15:02:22.932Z,99469
2023-03-23T15:08:15.922Z,99478
2023-03-23T15:14:10.484Z,99489
2023-03-23T15:20:02.031Z,99467
2023-03-23T15:25:56.530Z,99457
2023-03-23T15:31:49.647Z,99431
2023-03-23T15:37:41.997Z,99422
2023-03-23T15:43:32.987Z,99407
2023-03-23T15:49:25.441Z,99395
2023-03-23T15:55:18.769Z,99402
2023-03-23T16:01:11.232Z,99411
2023-03-23T16:07:05.537Z,99417
2023-03-23T16:12:58.917Z,99418
2023-03-23T16:18:57.722Z,99417
2023-03-23T16:24:53.330Z,99407
2023-03-23T16:30:46.798Z,99402
2023-03-23T16:36:38.200Z,99408
2023-03-23T16:42:31.525Z,99409
2023-03-23T16:48:28.258Z,99416
2023-03-23T16:54:22.592Z,99415
2023-03-23T17:00:15.675Z,99420
2023-03-23T17:06:08.407Z,99418
2023-03-23T17:12:02.265Z,99422
2023-03-23T17:18:04.623Z,99429
2023-03-23T17:23:58.182Z,99433
2023-03-23T17:29:51.476Z,99447
2023-03-23T17:35:43.678Z,99438
2023-03-23T17:41:39.287Z,99434
2023-03-23T17:47:33.177Z,99431
2023-03-23T17:53:27.649Z,99432
2023-03-23T17:59:20.352Z,99445
2023-03-23T18:05:12.528Z,99440
2023-03-23T18:11:04.245Z,99445
2023-03-23T18:16:57.208Z,99438
2023-03-23T18:22:49.333Z,99434
2023-03-23T18:28:41.985Z,99430
2023-03-23T18:34:48.602Z,99437
2023-03-23T18:40:45.178Z,99427
2023-03-23T18:46:39.627Z,99404
2023-03-23T18:59:02.362Z,99411
2023-03-23T19:04:54.993Z,99419
2023-03-23T19:11:04.394Z,99418
2023-03-23T19:16:59.951Z,99391
2023-03-23T19:22:58.026Z,99381
2023-03-23T19:29:29.574Z,99365
2023-03-23T19:35:22.662Z,99352
2023-03-23T19:41:18.935Z,99355
2023-03-23T19:47:13.080Z,99358
2023-03-23T19:53:10.818Z,99351
2023-03-23T19:59:06.512Z,99351
2023-03-23T20:05:03.537Z,99346
2023-03-23T20:11:13.815Z,99349
2023-03-23T20:17:11.690Z,99342
2023-03-23T20:23:18.380Z,99328
2023-03-23T20:29:34.969Z,99323
2023-03-23T20:35:45.513Z,99317
2023-03-23T20:41:56.868Z,99308
2023-03-23T20:48:04.093Z,99293
2023-03-23T20:54:06.639Z,99288
2023-03-23T21:00:05.638Z,99278
2023-03-23T21:05:58.126Z,99280
2023-03-23T21:11:53.240Z,99283
2023-03-23T21:18:00.788Z,99267
2023-03-23T21:23:54.979Z,99262
2023-03-23T21:29:51.301Z,99275
2023-03-23T21:35:45.159Z,99276
2023-03-23T21:41:46.902Z,99275
2023-03-23T21:47:42.178Z,99267
2023-03-23T21:53:33.581Z,99272
2023-03-23T21:59:25.789Z,99277
2023-03-23T22:05:17.653Z,99285
2023-03-23T22:11:09.878Z,99285
2023-03-23T22:17:02.553Z,99279
2023-03-23T22:22:53.896Z,99265
2023-03-23T22:28:46.150Z,99255
2023-03-23T22:34:39.554Z,99244
2023-03-23T22:40:31.283Z,99245
2023-03-23T22:46:27.750Z,99237
2023-03-23T22:52:25.699Z,99223
2023-03-23T22:58:27.636Z,99218
2023-03-23T23:04:22.451Z,99202
2023-03-23T23:10:19.487Z,99195
2023-03-23T23:16:12.689Z,99182
2023-03-23T23:22:22.544Z,99168
2023-03-23T23:28:13.649Z,99158
2023-03-23T23:34:06.056Z,99142
2023-03-23T23:39:58.055Z,99127
2023-03-23T23:45:49.079Z,99126
2023-03-23T23:51:41.537Z,99111
2023-03-23T23:57:34.196Z,99111
